Time;durP1;ratioP1;P1;durP2;ratioP2;P2;SDS_P1;SDS_P2;PMS_P1;PMS_P2;Temp;Humidity;BMP_temperature;BMP_pressure;BME280_temperature;BME280_humidity;BME280_pressure;Samples;Min_cycle;Max_cycle;Signal;HPM_P1;HPM_P2
2022/08/12 00:44:23;;;;;;;33.80;32.27;;;19.30;59.00;;;;;;4988133;28;20828;-69
2022/08/12 00:46:51;;;;;;;33.33;31.73;;;19.20;59.20;;;;;;4985121;28;20962;-65
2022/08/12 00:49:22;;;;;;;32.30;30.80;;;19.20;59.20;;;;;;4987169;28;20486;-65
2022/08/12 00:52:08;;;;;;;33.43;31.80;;;19.20;59.40;;;;;;4985783;28;20491;-65
2022/08/12 00:54:38;;;;;;;33.90;32.40;;;19.20;59.50;;;;;;4987305;28;20457;-65
2022/08/12 00:57:07;;;;;;;33.30;31.80;;;19.20;59.50;;;;;;4981072;28;20471;-65
2022/08/12 00:59:35;;;;;;;30.53;29.13;;;19.20;59.60;;;;;;4979036;28;20533;-65
2022/08/12 01:02:05;;;;;;;32.57;30.97;;;19.10;59.60;;;;;;4984769;28;20466;-65
2022/08/12 01:12:51;;;;;;;32.00;30.50;;;19.00;59.90;;;;;;4982992;28;20479;-65
2022/08/12 01:15:19;;;;;;;32.13;30.73;;;19.00;59.80;;;;;;4987609;28;20461;-65
2022/08/12 01:17:46;;;;;;;33.47;32.07;;;19.00;60.10;;;;;;4980618;28;20533;-65
2022/08/12 01:20:22;;;;;;;34.47;32.77;;;19.00;60.20;;;;;;4982326;28;22029;-65
2022/08/12 01:23:07;;;;;;;34.07;32.57;;;18.90;60.50;;;;;;4981114;28;21144;-65
2022/08/12 01:25:41;;;;;;;33.20;31.60;;;18.80;60.70;;;;;;4985453;28;20456;-65
2022/08/12 01:28:12;;;;;;;32.50;31.10;;;18.80;60.90;;;;;;4979361;28;20495;-68
2022/08/12 01:30:42;;;;;;;32.10;30.60;;;18.80;60.90;;;;;;4993118;28;20484;-67
2022/08/12 01:33:15;;;;;;;32.70;31.13;;;18.80;60.80;;;;;;4983236;28;20849;-69
2022/08/12 01:35:51;;;;;;;31.93;30.53;;;18.80;60.90;;;;;;4982800;28;20991;-66
2022/08/12 01:38:21;;;;;;;31.57;30.07;;;18.80;60.90;;;;;;4981479;28;20459;-67
2022/08/12 01:40:52;;;;;;;31.40;29.97;;;18.70;61.20;;;;;;4981296;28;20492;-67
2022/08/12 01:43:23;;;;;;;33.67;32.03;;;18.60;61.40;;;;;;4992694;28;20552;-64
2022/08/12 01:46:02;;;;;;;32.50;31.00;;;18.60;61.60;;;;;;4997624;28;20555;-65
2022/08/12 01:48:42;;;;;;;34.57;32.80;;;18.50;62.00;;;;;;4982211;28;20484;-65
2022/08/12 01:51:18;;;;;;;33.10;31.70;;;18.40;62.20;;;;;;4999110;28;21205;-65
2022/08/12 01:53:57;;;;;;;33.80;32.20;;;18.30;62.30;;;;;;4994351;28;21000;-65
2022/08/12 01:56:31;;;;;;;34.60;33.00;;;18.30;62.70;;;;;;4986908;28;20477;-64
2022/08/12 02:01:50;;;;;;;32.43;30.87;;;18.30;62.90;;;;;;4980219;28;20523;-69
2022/08/12 02:13:07;;;;;;;46.67;44.67;;;18.30;63.00;;;;;;4989627;28;20510;-67
2022/08/12 02:15:44;;;;;;;33.57;32.07;;;18.20;63.30;;;;;;4987606;28;20455;-67
2022/08/12 02:18:24;;;;;;;35.37;33.77;;;18.30;63.00;;;;;;4991317;28;21163;-69
2022/08/12 02:21:01;;;;;;;35.23;33.63;;;18.30;62.90;;;;;;4989067;28;20522;-67
2022/08/12 02:23:29;;;;;;;41.00;39.17;;;18.20;63.20;;;;;;4987849;28;20464;-67
2022/08/12 02:25:59;;;;;;;38.10;36.30;;;18.20;63.40;;;;;;4989318;28;20470;-67
2022/08/12 02:28:28;;;;;;;34.77;33.27;;;18.10;63.70;;;;;;4986556;28;20491;-66
2022/08/12 02:30:56;;;;;;;39.30;37.40;;;18.10;63.90;;;;;;4990948;28;20587;-67
2022/08/12 02:33:24;;;;;;;34.40;32.50;;;18.10;64.10;;;;;;4986911;28;20456;-67
2022/08/12 02:35:51;;;;;;;36.03;34.40;;;18.10;63.90;;;;;;4987579;28;20554;-67
2022/08/12 02:38:20;;;;;;;35.00;33.40;;;18.10;63.90;;;;;;4979473;28;20487;-67
2022/08/12 02:40:51;;;;;;;39.63;37.73;;;18.10;63.90;;;;;;4990111;28;20492;-67
2022/08/12 02:43:27;;;;;;;38.97;37.27;;;18.10;64.00;;;;;;4989944;28;20459;-67
2022/08/12 02:46:00;;;;;;;34.33;32.80;;;18.00;64.20;;;;;;4989225;28;20620;-67
2022/08/12 02:48:31;;;;;;;34.73;33.13;;;18.00;64.30;;;;;;4986049;28;20481;-68
2022/08/12 02:51:01;;;;;;;34.70;33.10;;;18.00;64.40;;;;;;4991471;28;20569;-67
2022/08/12 02:53:28;;;;;;;34.53;32.80;;;18.00;64.40;;;;;;4990598;28;20952;-68
2022/08/12 02:55:58;;;;;;;33.97;32.37;;;18.00;64.40;;;;;;4989041;28;20466;-67
2022/08/12 02:58:26;;;;;;;37.70;36.10;;;17.90;64.80;;;;;;4983313;28;20563;-66
2022/08/12 03:00:55;;;;;;;37.93;36.33;;;17.80;64.90;;;;;;4984416;28;20517;-66
2022/08/12 03:03:26;;;;;;;37.93;36.40;;;17.80;65.00;;;;;;4984596;28;20463;-66
2022/08/12 03:05:59;;;;;;;42.23;40.33;;;17.80;65.00;;;;;;4984675;28;20528;-66
2022/08/12 03:08:31;;;;;;;50.73;48.43;;;17.80;65.30;;;;;;4985498;28;21065;-66
2022/08/12 03:11:04;;;;;;;35.70;34.17;;;17.80;65.20;;;;;;4980052;28;20478;-66
2022/08/12 03:13:39;;;;;;;41.03;39.27;;;17.80;65.20;;;;;;4986877;28;20554;-70
2022/08/12 03:16:08;;;;;;;41.93;39.90;;;17.80;65.40;;;;;;4986800;28;20454;-67
2022/08/12 03:18:35;;;;;;;40.33;38.60;;;17.70;65.60;;;;;;4981400;28;20554;-67
2022/08/12 03:21:02;;;;;;;36.87;35.20;;;17.70;65.70;;;;;;4990650;28;20529;-67
2022/08/12 03:23:30;;;;;;;46.23;43.93;;;17.70;65.70;;;;;;4985161;28;21049;-70
2022/08/12 03:25:59;;;;;;;41.27;39.50;;;17.70;65.90;;;;;;4986960;28;20521;-67
2022/08/12 03:31:13;;;;;;;40.10;38.20;;;17.70;66.00;;;;;;4990938;28;20480;-67
2022/08/12 03:33:42;;;;;;;58.87;55.87;;;17.60;66.10;;;;;;4989362;28;20455;-67
2022/08/12 03:36:10;;;;;;;34.60;33.00;;;17.70;66.00;;;;;;4989578;28;20453;-67
2022/08/12 03:38:41;;;;;;;40.70;38.93;;;17.60;66.20;;;;;;4989774;28;20535;-67
2022/08/12 03:41:34;;;;;;;45.10;43.00;;;17.60;66.50;;;;;;4999683;28;20521;-68
2022/08/12 04:00:46;;;;;;;54.67;52.07;;;17.20;67.90;;;;;;4988806;28;20612;-65
2022/08/12 04:06:00;;;;;;;52.63;50.03;;;17.20;68.20;;;;;;4987343;28;20497;-65
2022/08/12 04:08:27;;;;;;;44.20;42.27;;;17.20;68.20;;;;;;4992983;28;20565;-65
2022/08/12 04:13:40;;;;;;;52.63;50.13;;;17.20;68.20;;;;;;4994884;28;20469;-65
2022/08/12 04:16:09;;;;;;;37.07;35.27;;;17.30;67.90;;;;;;4987609;28;20937;-65
2022/08/12 04:18:39;;;;;;;62.07;58.97;;;17.30;68.10;;;;;;4983340;28;20450;-65
2022/08/12 04:21:07;;;;;;;54.43;51.93;;;17.30;68.10;;;;;;4987549;28;20508;-65
2022/08/12 04:23:37;;;;;;;63.20;60.10;;;17.20;68.30;;;;;;4988919;28;20589;-69
2022/08/12 04:26:04;;;;;;;39.77;37.87;;;17.20;68.30;;;;;;4986631;28;20464;-65
2022/08/12 04:28:31;;;;;;;37.00;35.30;;;17.20;68.30;;;;;;4981504;28;20609;-65
2022/08/12 04:30:58;;;;;;;38.43;36.60;;;17.20;68.50;;;;;;4983170;28;20478;-65
2022/08/12 04:33:25;;;;;;;40.17;38.37;;;17.20;68.50;;;;;;4996731;28;20561;-65
2022/08/12 04:35:55;;;;;;;45.60;43.50;;;17.20;68.40;;;;;;4989247;28;20537;-65
2022/08/12 04:38:23;;;;;;;59.27;56.17;;;17.30;68.40;;;;;;4983130;28;20497;-65
2022/08/12 04:40:51;;;;;;;41.77;39.87;;;17.30;68.20;;;;;;4994354;28;20572;-65
2022/08/12 04:43:18;;;;;;;37.07;35.37;;;17.40;67.90;;;;;;4987045;28;20541;-65
2022/08/12 04:45:48;;;;;;;61.37;58.17;;;17.40;68.00;;;;;;4987551;28;20501;-65
2022/08/12 04:48:15;;;;;;;47.97;45.80;;;17.50;67.70;;;;;;4985635;28;20552;-65
2022/08/12 04:50:45;;;;;;;37.83;36.10;;;17.40;67.90;;;;;;4993818;28;20580;-65
2022/08/12 04:53:14;;;;;;;39.60;37.50;;;17.40;68.10;;;;;;4982760;28;20458;-67
2022/08/12 04:55:44;;;;;;;43.33;41.33;;;17.40;68.20;;;;;;4979463;28;20562;-67
2022/08/12 04:58:12;;;;;;;42.13;40.17;;;17.40;68.20;;;;;;4983841;28;20484;-67
2022/08/12 05:00:39;;;;;;;44.07;41.97;;;17.50;68.20;;;;;;4980553;28;20479;-67
2022/08/12 05:03:08;;;;;;;57.23;54.47;;;17.60;67.80;;;;;;4982321;28;20548;-66
2022/08/12 05:05:36;;;;;;;54.77;52.07;;;17.60;67.60;;;;;;4988590;28;20468;-67
2022/08/12 05:08:06;;;;;;;38.67;36.87;;;17.50;67.80;;;;;;4986202;28;20555;-67
2022/08/12 05:10:35;;;;;;;38.27;36.20;;;17.60;67.80;;;;;;4986961;28;20568;-67
2022/08/12 05:13:04;;;;;;;35.23;33.53;;;17.60;67.80;;;;;;4984820;28;20462;-70
2022/08/12 05:15:31;;;;;;;54.40;51.70;;;17.70;67.60;;;;;;4989247;28;20451;-67
2022/08/12 05:17:58;;;;;;;44.73;42.53;;;17.80;67.60;;;;;;4990667;28;20556;-68
2022/08/12 05:20:25;;;;;;;38.40;36.50;;;17.80;67.20;;;;;;4982497;28;20479;-67
2022/08/12 05:23:05;;;;;;;52.40;49.80;;;17.90;67.00;;;;;;4990134;28;20466;-67
2022/08/12 05:25:34;;;;;;;55.80;53.10;;;18.10;66.60;;;;;;4984581;28;21505;-67
2022/08/12 05:28:01;;;;;;;42.33;40.33;;;18.10;66.60;;;;;;4991726;28;20534;-68
2022/08/12 05:30:29;;;;;;;44.13;42.00;;;18.20;66.20;;;;;;4990209;28;20524;-68
2022/08/12 05:32:57;;;;;;;50.93;48.37;;;18.30;65.90;;;;;;4988641;28;20470;-67
2022/08/12 05:35:24;;;;;;;48.13;45.43;;;18.40;65.90;;;;;;4985210;28;20499;-66
2022/08/12 05:38:54;;;;;;;41.40;39.33;;;18.50;65.70;;;;;;4988096;28;20460;-67
2022/08/12 05:40:41;;;;;;;38.30;36.50;;;18.60;65.50;;;;;;4986602;28;20831;-69
2022/08/12 05:43:08;;;;;;;50.47;47.83;;;18.70;65.30;;;;;;4987973;28;20463;-67
2022/08/12 05:45:35;;;;;;;48.73;46.33;;;18.80;65.20;;;;;;4986377;28;20853;-67
2022/08/12 05:48:02;;;;;;;53.03;50.40;;;18.90;64.90;;;;;;4988984;28;20990;-69
2022/08/12 05:50:29;;;;;;;37.13;35.43;;;19.00;64.70;;;;;;4989688;28;21005;-68
2022/08/12 05:52:56;;;;;;;39.97;37.83;;;19.10;64.40;;;;;;4987337;28;20597;-67
2022/08/12 05:55:31;;;;;;;51.20;48.50;;;19.20;64.40;;;;;;4986739;28;20472;-71
2022/08/12 05:58:00;;;;;;;39.20;37.30;;;19.30;64.00;;;;;;4985160;28;20461;-66
2022/08/12 06:00:30;;;;;;;39.97;37.93;;;19.40;63.80;;;;;;4991480;28;20470;-67
2022/08/12 06:02:59;;;;;;;52.73;50.13;;;19.50;63.60;;;;;;4988086;28;20963;-65
2022/08/12 06:05:26;;;;;;;56.00;53.10;;;19.60;63.20;;;;;;4982451;28;20864;-65
2022/08/12 06:07:54;;;;;;;41.93;39.93;;;19.70;62.90;;;;;;4987316;28;20999;-65
2022/08/12 06:10:21;;;;;;;45.60;43.23;;;19.80;62.40;;;;;;4990504;28;20509;-65
2022/08/12 06:12:48;;;;;;;47.77;45.53;;;19.90;62.20;;;;;;4984298;28;20521;-65
2022/08/12 06:15:17;;;;;;;48.87;46.37;;;20.10;61.20;;;;;;4987525;28;20542;-65
2022/08/12 06:17:44;;;;;;;45.00;42.83;;;20.10;60.90;;;;;;4992457;28;20491;-65
2022/08/12 06:20:14;;;;;;;54.00;51.27;;;20.30;59.90;;;;;;4987369;28;20563;-67
2022/08/12 06:22:41;;;;;;;41.90;39.53;;;20.30;59.30;;;;;;4986629;28;20475;-67
2022/08/12 06:25:09;;;;;;;46.83;44.73;;;20.40;59.20;;;;;;4990076;28;20547;-67
2022/08/12 06:27:43;;;;;;;47.27;44.87;;;20.60;58.50;;;;;;4986002;28;20464;-67
2022/08/12 06:30:13;;;;;;;45.60;43.10;;;20.50;58.10;;;;;;4983859;28;20480;-68
2022/08/12 06:32:42;;;;;;;50.93;48.17;;;20.70;57.80;;;;;;4989635;28;20457;-68
2022/08/12 06:35:09;;;;;;;42.27;40.27;;;20.90;57.30;;;;;;4984351;28;20460;-68
2022/08/12 06:37:40;;;;;;;41.27;39.23;;;20.90;57.20;;;;;;4984958;28;21042;-67
2022/08/12 06:40:09;;;;;;;59.07;55.90;;;20.90;57.20;;;;;;4981348;28;20476;-67
2022/08/12 06:42:48;;;;;;;44.47;42.30;;;21.00;57.30;;;;;;4983671;28;20469;-66
2022/08/12 06:45:15;;;;;;;52.70;49.83;;;21.00;57.20;;;;;;4985105;28;20497;-67
2022/08/12 06:47:43;;;;;;;47.83;45.33;;;21.10;56.70;;;;;;4980034;28;20461;-71
2022/08/12 06:50:14;;;;;;;40.37;38.03;;;21.20;56.40;;;;;;4988221;28;21056;-69
2022/08/12 06:52:41;;;;;;;46.23;43.67;;;21.20;56.30;;;;;;4990014;28;20524;-70
2022/08/12 06:55:12;;;;;;;51.27;48.47;;;21.20;56.40;;;;;;4986950;28;20478;-69
2022/08/12 06:57:53;;;;;;;50.50;48.13;;;21.40;55.80;;;;;;4982925;28;20462;-66
2022/08/12 07:00:22;;;;;;;50.90;48.10;;;21.60;55.30;;;;;;4987080;28;20486;-67
2022/08/12 07:02:51;;;;;;;52.27;49.57;;;21.70;55.00;;;;;;4980674;28;20474;-67
2022/08/12 07:05:23;;;;;;;54.77;51.87;;;21.80;54.70;;;;;;4983458;28;20573;-66
2022/08/12 07:08:05;;;;;;;51.07;48.47;;;21.90;54.70;;;;;;4987081;28;20462;-69
2022/08/12 07:10:33;;;;;;;41.90;39.60;;;21.90;54.50;;;;;;4976562;28;20487;-71
2022/08/12 07:13:01;;;;;;;45.07;42.87;;;21.90;54.60;;;;;;4984244;28;20494;-69
2022/08/12 07:15:30;;;;;;;55.33;51.97;;;22.00;54.40;;;;;;4990448;28;20478;-70
2022/08/12 07:18:04;;;;;;;44.23;42.23;;;22.10;54.20;;;;;;4984749;28;20493;-69
2022/08/12 07:20:34;;;;;;;63.03;60.23;;;22.20;53.90;;;;;;4985783;28;20483;-68
2022/08/12 07:23:03;;;;;;;40.50;38.70;;;22.30;53.60;;;;;;4984777;28;20473;-69
2022/08/12 07:25:31;;;;;;;56.00;53.40;;;22.30;53.10;;;;;;4992823;28;20995;-70
2022/08/12 07:28:02;;;;;;;46.00;43.90;;;22.40;53.10;;;;;;4984459;28;20463;-69
2022/08/12 07:30:31;;;;;;;57.73;54.80;;;22.40;53.20;;;;;;4986928;28;20490;-67
2022/08/12 07:33:03;;;;;;;48.60;46.40;;;22.60;52.80;;;;;;4988026;28;20589;-70
2022/08/12 07:35:32;;;;;;;55.00;52.40;;;22.70;52.20;;;;;;4986807;28;20502;-68
2022/08/12 07:38:01;;;;;;;54.30;51.60;;;22.80;51.90;;;;;;4985659;28;20466;-70
2022/08/12 07:40:29;;;;;;;43.90;42.00;;;23.00;51.70;;;;;;4985062;28;20569;-69
2022/08/12 07:42:57;;;;;;;54.27;51.37;;;23.10;51.20;;;;;;4981312;28;20459;-68
2022/08/12 07:45:24;;;;;;;38.83;36.80;;;23.30;50.90;;;;;;4984121;28;20465;-68
2022/08/12 07:47:51;;;;;;;48.07;45.70;;;23.40;50.50;;;;;;4990512;28;20470;-72
2022/08/12 07:50:20;;;;;;;45.77;43.70;;;23.60;49.90;;;;;;4982160;28;20488;-69
2022/08/12 07:52:48;;;;;;;44.20;42.10;;;23.80;49.50;;;;;;4981405;28;20458;-71
2022/08/12 07:55:18;;;;;;;55.97;53.27;;;23.70;49.80;;;;;;4985490;28;20469;-69
2022/08/12 07:57:54;;;;;;;38.90;37.13;;;23.60;49.80;;;;;;4982996;28;20477;-69
2022/08/12 08:00:22;;;;;;;52.20;49.67;;;23.80;49.10;;;;;;4985746;28;20561;-70
2022/08/12 08:02:53;;;;;;;47.13;44.60;;;23.80;49.50;;;;;;4979431;28;21070;-69
2022/08/12 08:05:22;;;;;;;43.13;41.13;;;23.90;49.30;;;;;;4987113;28;20463;-68
2022/08/12 08:07:52;;;;;;;42.17;40.27;;;24.00;49.20;;;;;;4989849;28;20558;-72
2022/08/12 08:10:19;;;;;;;44.23;42.23;;;24.20;48.90;;;;;;4978769;28;20515;-69
2022/08/12 08:12:52;;;;;;;38.10;36.40;;;24.30;48.00;;;;;;4982908;28;20545;-72
2022/08/12 08:15:20;;;;;;;39.07;37.17;;;24.30;48.00;;;;;;4976619;28;20461;-68
2022/08/12 08:17:56;;;;;;;40.27;38.27;;;24.40;47.90;;;;;;4978411;28;21016;-69
2022/08/12 08:20:27;;;;;;;38.17;36.27;;;24.50;47.80;;;;;;4985558;28;20836;-68
2022/08/12 08:22:56;;;;;;;45.03;42.83;;;24.70;47.10;;;;;;4987172;28;20867;-68
2022/08/12 08:25:29;;;;;;;51.77;49.27;;;24.70;46.80;;;;;;4976535;28;20507;-69
2022/08/12 08:27:58;;;;;;;39.67;37.87;;;24.80;46.60;;;;;;4983678;28;20455;-69
2022/08/12 08:30:27;;;;;;;35.37;33.70;;;25.00;46.40;;;;;;4984414;28;20484;-68
2022/08/12 08:32:54;;;;;;;43.93;41.73;;;25.00;46.50;;;;;;4983737;28;20548;-68
2022/08/12 08:35:21;;;;;;;43.07;40.97;;;25.00;46.60;;;;;;4982500;28;20504;-69
2022/08/12 08:37:50;;;;;;;51.00;48.47;;;25.00;46.30;;;;;;4986844;28;20467;-68
2022/08/12 08:43:03;;;;;;;38.20;36.50;;;24.90;46.60;;;;;;4983735;28;20470;-68
2022/08/12 08:45:30;;;;;;;47.60;45.50;;;25.00;45.90;;;;;;4985260;28;20483;-69
2022/08/12 08:47:58;;;;;;;48.13;45.90;;;24.90;46.10;;;;;;4985605;28;20549;-69
2022/08/12 08:50:24;;;;;;;44.30;42.40;;;25.00;45.80;;;;;;4985492;28;21069;-69
2022/08/12 08:52:53;;;;;;;44.00;42.00;;;25.10;45.20;;;;;;4979430;28;20552;-72
2022/08/12 08:55:20;;;;;;;48.50;45.67;;;25.10;45.00;;;;;;4983022;28;20494;-71
2022/08/12 08:57:51;;;;;;;38.87;36.87;;;25.10;44.60;;;;;;4980681;28;20982;-68
2022/08/12 09:00:20;;;;;;;40.90;39.00;;;25.20;45.00;;;;;;4980648;28;20486;-70
2022/08/12 09:02:48;;;;;;;44.73;42.23;;;25.30;44.60;;;;;;4984532;28;20464;-69
2022/08/12 09:05:16;;;;;;;37.70;36.10;;;25.30;44.50;;;;;;4985653;28;20545;-68
2022/08/12 09:07:45;;;;;;;42.73;40.80;;;25.50;43.90;;;;;;4984193;28;20463;-70
2022/08/12 09:10:18;;;;;;;38.90;36.97;;;25.40;43.40;;;;;;4989873;28;20924;-68
2022/08/12 09:15:30;;;;;;;42.73;40.93;;;25.40;43.00;;;;;;4983815;28;20475;-68
2022/08/12 09:17:58;;;;;;;53.13;50.70;;;25.30;42.90;;;;;;4980562;28;21000;-69
2022/08/12 09:20:26;;;;;;;48.23;45.97;;;25.30;42.90;;;;;;4988069;28;20478;-69
2022/08/12 09:22:54;;;;;;;38.63;37.03;;;25.20;43.00;;;;;;4978565;28;20568;-69
2022/08/12 09:25:25;;;;;;;55.07;52.13;;;25.40;42.90;;;;;;4981887;28;20996;-72
2022/08/12 09:27:52;;;;;;;53.90;51.17;;;25.60;42.10;;;;;;4976352;28;20470;-71
2022/08/12 09:30:20;;;;;;;50.90;48.60;;;25.50;42.00;;;;;;4984454;28;20581;-68
2022/08/12 09:32:49;;;;;;;44.90;42.50;;;25.50;42.20;;;;;;4976695;28;20625;-69
2022/08/12 09:35:19;;;;;;;46.70;44.30;;;25.50;42.80;;;;;;4986415;28;20541;-69
2022/08/12 09:37:47;;;;;;;49.10;46.97;;;25.60;42.60;;;;;;4981879;28;20468;-68
2022/08/12 09:40:15;;;;;;;37.00;35.07;;;25.90;42.50;;;;;;4975864;28;20481;-70
2022/08/12 09:45:31;;;;;;;37.57;35.87;;;26.00;41.70;;;;;;4984085;28;20461;-67
2022/08/12 09:48:00;;;;;;;55.80;53.20;;;26.10;41.00;;;;;;4976546;28;20459;-68
2022/08/12 09:50:27;;;;;;;41.33;39.50;;;26.20;40.90;;;;;;4982380;28;20507;-70
2022/08/12 09:53:06;;;;;;;43.80;41.83;;;26.30;39.80;;;;;;4981620;28;20458;-69
2022/08/12 09:55:34;;;;;;;39.40;37.40;;;26.40;39.70;;;;;;4978904;28;20923;-69
2022/08/12 09:58:02;;;;;;;46.30;44.10;;;26.20;40.10;;;;;;4981068;28;21015;-66
2022/08/12 10:00:33;;;;;;;47.40;45.30;;;25.90;40.50;;;;;;4992969;28;20623;-68
2022/08/12 10:03:03;;;;;;;44.73;42.53;;;26.10;40.50;;;;;;4984179;28;20469;-69
2022/08/12 10:05:32;;;;;;;56.60;54.00;;;26.30;40.30;;;;;;4992715;28;20721;-68
2022/08/12 10:08:00;;;;;;;36.70;34.87;;;26.20;40.60;;;;;;4980051;28;20578;-68
2022/08/12 10:10:27;;;;;;;52.10;49.67;;;26.40;40.60;;;;;;4989439;28;20482;-68
2022/08/12 10:15:43;;;;;;;39.20;37.10;;;26.50;40.90;;;;;;4987225;28;20482;-69
2022/08/12 10:18:11;;;;;;;42.27;40.13;;;26.70;40.90;;;;;;4985350;28;20470;-68
2022/08/12 10:20:38;;;;;;;38.23;36.40;;;26.80;40.20;;;;;;4986436;28;20470;-73
2022/08/12 10:23:06;;;;;;;44.87;42.57;;;26.70;39.90;;;;;;4982005;28;20459;-69
2022/08/12 10:31:04;;;;;;;50.57;48.20;;;26.80;39.80;;;;;;4989785;28;21025;-69
2022/08/12 10:33:32;;;;;;;43.83;41.50;;;26.90;39.90;;;;;;4987224;28;20891;-69
2022/08/12 10:36:00;;;;;;;38.30;36.40;;;26.80;40.70;;;;;;4987868;28;21219;-68
2022/08/12 10:38:28;;;;;;;35.23;33.73;;;26.80;40.70;;;;;;4992024;28;20470;-70
2022/08/12 10:43:43;;;;;;;49.13;46.50;;;26.80;40.90;;;;;;4984528;28;20460;-68
2022/08/12 10:46:16;;;;;;;48.73;46.33;;;26.70;40.80;;;;;;4984623;28;20466;-68
2022/08/12 10:48:50;;;;;;;43.77;41.60;;;26.80;40.40;;;;;;4986902;28;20460;-72
2022/08/12 10:51:18;;;;;;;38.00;36.17;;;26.80;40.60;;;;;;4976466;28;20490;-70
2022/08/12 10:53:46;;;;;;;62.23;59.53;;;26.70;40.90;;;;;;4994923;28;20461;-68
2022/08/12 10:56:14;;;;;;;43.40;41.40;;;26.80;41.10;;;;;;4977079;28;20481;-68
2022/08/12 10:58:41;;;;;;;41.40;39.60;;;26.90;40.70;;;;;;4988318;28;20875;-69
2022/08/12 11:01:09;;;;;;;40.80;38.90;;;27.10;40.20;;;;;;4997555;28;20545;-69
2022/08/12 11:03:38;;;;;;;52.80;50.30;;;27.20;39.70;;;;;;4982102;28;20820;-68
2022/08/12 11:06:06;;;;;;;35.30;33.50;;;27.30;38.70;;;;;;4989179;28;20470;-68
2022/08/12 11:08:36;;;;;;;42.80;40.80;;;27.30;39.30;;;;;;4980297;28;20597;-68
2022/08/12 11:11:04;;;;;;;39.27;37.20;;;27.20;39.30;;;;;;4984076;28;20488;-69
2022/08/12 11:13:31;;;;;;;52.73;50.20;;;27.40;39.60;;;;;;4987773;28;20458;-69
2022/08/12 11:15:58;;;;;;;51.63;49.03;;;27.70;39.40;;;;;;4980701;28;20459;-68
2022/08/12 11:18:25;;;;;;;48.00;45.33;;;27.90;38.40;;;;;;4991096;28;20450;-68
2022/08/12 11:20:53;;;;;;;50.83;48.43;;;28.10;37.60;;;;;;4987522;28;20466;-70
2022/08/12 11:23:21;;;;;;;41.50;39.50;;;27.90;37.80;;;;;;4983894;28;20466;-68
2022/08/12 11:25:49;;;;;;;45.93;43.63;;;27.90;37.70;;;;;;4975532;28;21036;-66
2022/08/12 11:28:16;;;;;;;45.40;43.30;;;27.70;37.40;;;;;;4985207;28;21010;-68
2022/08/12 11:30:43;;;;;;;51.57;48.97;;;27.70;37.60;;;;;;4981178;28;20898;-68
2022/08/12 11:33:11;;;;;;;51.97;49.30;;;27.40;38.20;;;;;;4986394;28;20866;-69
2022/08/12 11:35:40;;;;;;;41.93;39.93;;;27.40;37.90;;;;;;4980352;28;20554;-69
2022/08/12 11:38:08;;;;;;;40.80;39.00;;;27.70;37.60;;;;;;4986104;28;20470;-69
2022/08/12 11:40:35;;;;;;;38.10;36.10;;;27.70;37.40;;;;;;4987352;28;20623;-69
2022/08/12 11:43:03;;;;;;;53.27;50.77;;;27.60;37.30;;;;;;4981125;28;20453;-68
2022/08/12 11:45:30;;;;;;;60.07;57.33;;;27.50;37.40;;;;;;4982228;28;20457;-68
2022/08/12 11:47:58;;;;;;;58.60;55.80;;;27.60;37.10;;;;;;4975054;28;20493;-71
2022/08/12 11:50:26;;;;;;;39.63;37.83;;;27.60;37.50;;;;;;4976701;28;20854;-68
2022/08/12 11:52:52;;;;;;;50.43;47.90;;;27.60;37.10;;;;;;4979325;28;20458;-68
2022/08/12 11:55:21;;;;;;;40.43;38.00;;;27.50;37.40;;;;;;4975315;28;21112;-69
2022/08/12 11:57:53;;;;;;;49.30;46.93;;;27.50;37.20;;;;;;4976532;28;20473;-69
2022/08/12 12:00:21;;;;;;;38.07;36.30;;;27.50;37.10;;;;;;4980824;28;20477;-67
2022/08/12 12:02:49;;;;;;;56.60;53.90;;;27.40;37.70;;;;;;4979315;28;20458;-66
2022/08/12 12:05:16;;;;;;;39.47;37.67;;;27.30;37.30;;;;;;4975883;28;20461;-66
2022/08/12 12:07:44;;;;;;;38.13;36.33;;;27.60;36.70;;;;;;4980365;28;20500;-66
2022/08/12 12:10:12;;;;;;;36.40;34.70;;;27.60;36.20;;;;;;4973938;28;20501;-66
2022/08/12 12:12:41;;;;;;;40.73;38.83;;;27.70;36.40;;;;;;4978224;28;20478;-66
2022/08/12 12:15:09;;;;;;;35.93;34.07;;;27.70;37.00;;;;;;4983506;28;20498;-66
2022/08/12 12:17:36;;;;;;;55.13;52.53;;;27.80;36.60;;;;;;4978850;28;20524;-66
2022/08/12 12:20:05;;;;;;;35.80;34.10;;;27.80;36.50;;;;;;4982134;28;21007;-66
2022/08/12 12:22:32;;;;;;;46.03;43.60;;;27.80;36.50;;;;;;4983238;28;20461;-67
2022/08/12 12:24:59;;;;;;;39.37;37.57;;;27.80;36.50;;;;;;4986569;28;20470;-66
2022/08/12 12:27:26;;;;;;;50.53;48.03;;;27.70;36.90;;;;;;4983789;28;20525;-66
2022/08/12 12:29:56;;;;;;;48.90;46.60;;;27.90;36.70;;;;;;4991079;28;21010;-66
2022/08/12 12:32:23;;;;;;;43.83;41.50;;;28.00;36.30;;;;;;4978139;28;20509;-66
2022/08/12 12:34:50;;;;;;;47.43;45.33;;;28.30;35.90;;;;;;4982922;28;20577;-69
2022/08/12 12:37:17;;;;;;;56.67;54.00;;;28.50;35.40;;;;;;4979313;28;20530;-69
2022/08/12 12:39:44;;;;;;;41.73;39.93;;;28.60;35.30;;;;;;4985077;28;20493;-69
2022/08/12 12:42:11;;;;;;;43.13;41.23;;;28.50;35.60;;;;;;4988733;28;20451;-69
2022/08/12 12:44:39;;;;;;;39.33;37.63;;;28.50;35.10;;;;;;4977279;28;20463;-69
2022/08/12 12:47:07;;;;;;;54.90;52.40;;;28.60;35.00;;;;;;4978021;28;20465;-68
2022/08/12 12:49:34;;;;;;;50.97;48.67;;;29.10;34.80;;;;;;4985090;28;20462;-68
2022/08/12 12:52:01;;;;;;;55.87;53.33;;;29.50;33.90;;;;;;4988702;28;20568;-68
2022/08/12 12:54:28;;;;;;;41.53;39.30;;;29.70;33.40;;;;;;4980618;28;20464;-69
2022/08/12 12:56:55;;;;;;;42.30;40.37;;;29.70;33.60;;;;;;4982703;28;20460;-68
2022/08/12 12:59:23;;;;;;;54.90;52.47;;;29.60;34.00;;;;;;4989682;28;20462;-74
2022/08/12 13:01:50;;;;;;;37.50;35.30;;;29.50;34.50;;;;;;4985709;28;20572;-69
2022/08/12 13:04:19;;;;;;;45.30;43.20;;;29.40;34.50;;;;;;4983012;28;20585;-67
2022/08/12 13:06:50;;;;;;;60.13;57.33;;;29.10;34.90;;;;;;4983301;28;20564;-66
2022/08/12 13:09:18;;;;;;;37.97;36.27;;;28.80;35.50;;;;;;4983682;28;20453;-67
2022/08/12 13:11:46;;;;;;;56.37;53.67;;;29.20;35.30;;;;;;4984900;28;20486;-67
2022/08/12 13:14:14;;;;;;;35.63;34.03;;;29.40;34.80;;;;;;4985452;28;20474;-67
2022/08/12 13:16:42;;;;;;;51.53;48.97;;;29.60;34.90;;;;;;4981706;28;20913;-66
2022/08/12 13:19:09;;;;;;;59.90;57.00;;;29.80;34.60;;;;;;4985949;28;20478;-67
2022/08/12 13:22:14;;;;;;;50.50;48.10;;;29.70;35.00;;;;;;4984513;28;20482;-67
2022/08/12 13:24:25;;;;;;;37.13;35.30;;;29.50;35.00;;;;;;4994982;28;20451;-68
2022/08/12 13:26:52;;;;;;;38.20;36.50;;;29.80;35.20;;;;;;4991413;28;20455;-68
2022/08/12 13:29:19;;;;;;;53.40;50.93;;;29.70;34.50;;;;;;4980251;28;20465;-67
2022/08/12 13:31:47;;;;;;;41.00;39.07;;;29.50;34.40;;;;;;4985755;28;20952;-67
2022/08/12 13:34:14;;;;;;;37.13;35.43;;;29.50;34.50;;;;;;4989098;28;20492;-67
2022/08/12 13:36:44;;;;;;;49.33;47.10;;;29.80;34.60;;;;;;4991902;28;20544;-67
2022/08/12 13:39:11;;;;;;;43.37;41.50;;;30.20;34.30;;;;;;4984922;28;20944;-67
2022/08/12 13:41:37;;;;;;;38.47;36.73;;;30.30;33.60;;;;;;4974857;28;20581;-67
2022/08/12 13:44:06;;;;;;;50.90;48.30;;;30.50;33.80;;;;;;4988898;28;20556;-67
2022/08/12 13:46:34;;;;;;;46.17;44.07;;;30.60;33.10;;;;;;4989732;28;20469;-68
2022/08/12 13:49:03;;;;;;;52.83;50.43;;;30.40;33.40;;;;;;4987060;28;20458;-67
2022/08/12 13:51:31;;;;;;;49.90;47.57;;;30.20;34.10;;;;;;4991163;28;21168;-70
2022/08/12 13:53:59;;;;;;;47.47;45.13;;;30.10;34.00;;;;;;4979726;28;20470;-70
2022/08/12 13:56:27;;;;;;;52.80;50.30;;;30.10;34.30;;;;;;4989889;28;20492;-70
2022/08/12 13:58:54;;;;;;;52.27;49.67;;;30.00;34.30;;;;;;4990670;28;20540;-71
2022/08/12 14:01:22;;;;;;;47.00;44.87;;;29.80;34.50;;;;;;4984006;28;20505;-71
2022/08/12 14:03:49;;;;;;;61.87;59.03;;;29.70;34.80;;;;;;4983221;28;20550;-70
2022/08/12 14:06:17;;;;;;;45.87;43.83;;;29.90;34.60;;;;;;4989901;28;20776;-71
2022/08/12 14:08:44;;;;;;;39.90;38.10;;;30.10;34.70;;;;;;4989124;28;20453;-71
2022/08/12 14:11:12;;;;;;;40.67;38.83;;;30.40;34.10;;;;;;4988516;28;20580;-70
2022/08/12 14:13:40;;;;;;;43.67;41.67;;;30.60;33.40;;;;;;4990222;28;20485;-70
2022/08/12 14:16:09;;;;;;;52.27;49.83;;;30.30;34.20;;;;;;4989630;28;20474;-70
2022/08/12 14:18:38;;;;;;;50.23;47.50;;;30.40;33.60;;;;;;4987752;28;20567;-69
2022/08/12 14:21:08;;;;;;;48.97;46.63;;;30.20;33.60;;;;;;4987398;28;20496;-69
2022/08/12 14:23:37;;;;;;;37.30;35.60;;;30.10;35.20;;;;;;4978090;28;20466;-69
2022/08/12 14:26:06;;;;;;;41.47;39.57;;;30.10;33.90;;;;;;4987022;28;20557;-70